sensor_id;sensor_type;location;lat;lon;timestamp;pressure;altitude;pressure_sealevel;temperature;humidity
13387;BME280;6763;48.524;9.044;2023-05-03T00:02:07;98544.06;;;13.44;52.57
13387;BME280;6763;48.524;9.044;2023-05-03T00:04:34;98542.41;;;13.39;52.75
13387;BME280;6763;48.524;9.044;2023-05-03T00:07:00;98546.84;;;13.35;52.74
13387;BME280;6763;48.524;9.044;2023-05-03T00:09:25;98542.53;;;13.33;52.86
13387;BME280;6763;48.524;9.044;2023-05-03T00:11:51;98543.41;;;13.32;53.16
13387;BME280;6763;48.524;9.044;2023-05-03T00:14:17;98543.47;;;13.30;52.90
13387;BME280;6763;48.524;9.044;2023-05-03T00:16:43;98542.59;;;13.28;53.61
13387;BME280;6763;48.524;9.044;2023-05-03T00:19:08;98544.38;;;13.26;53.17
13387;BME280;6763;48.524;9.044;2023-05-03T00:21:34;98541.00;;;13.23;53.64
13387;BME280;6763;48.524;9.044;2023-05-03T00:23:59;98541.91;;;13.19;53.81
13387;BME280;6763;48.524;9.044;2023-05-03T00:26:24;98541.03;;;13.18;53.22
13387;BME280;6763;48.524;9.044;2023-05-03T00:28:51;98543.69;;;13.15;53.89
13387;BME280;6763;48.524;9.044;2023-05-03T00:31:16;98542.88;;;13.13;53.34
13387;BME280;6763;48.524;9.044;2023-05-03T00:33:42;98548.09;;;13.12;53.50
13387;BME280;6763;48.524;9.044;2023-05-03T00:36:12;98540.34;;;13.09;53.55
13387;BME280;6763;48.524;9.044;2023-05-03T00:38:41;98546.41;;;13.06;53.42
13387;BME280;6763;48.524;9.044;2023-05-03T00:41:08;98549.91;;;13.05;53.95
13387;BME280;6763;48.524;9.044;2023-05-03T00:43:34;98542.13;;;13.03;53.98
13387;BME280;6763;48.524;9.044;2023-05-03T00:46:02;98543.03;;;13.01;53.67
13387;BME280;6763;48.524;9.044;2023-05-03T00:48:30;98535.34;;;12.95;53.85
13387;BME280;6763;48.524;9.044;2023-05-03T00:50:56;98544.03;;;12.92;53.74
13387;BME280;6763;48.524;9.044;2023-05-03T00:53:22;98533.78;;;12.85;53.85
13387;BME280;6763;48.524;9.044;2023-05-03T00:55:52;98540.72;;;12.83;53.83
13387;BME280;6763;48.524;9.044;2023-05-03T00:58:20;98533.84;;;12.79;54.08
13387;BME280;6763;48.524;9.044;2023-05-03T01:00:46;98535.69;;;12.72;54.08
13387;BME280;6763;48.524;9.044;2023-05-03T01:03:12;98536.59;;;12.70;53.83
13387;BME280;6763;48.524;9.044;2023-05-03T01:05:47;98530.59;;;12.68;54.05
13387;BME280;6763;48.524;9.044;2023-05-03T01:08:26;98537.56;;;12.64;54.04
13387;BME280;6763;48.524;9.044;2023-05-03T01:10:54;98540.19;;;12.63;53.86
13387;BME280;6763;48.524;9.044;2023-05-03T01:13:39;98537.63;;;12.60;54.35
13387;BME280;6763;48.524;9.044;2023-05-03T01:16:20;98534.16;;;12.59;54.33
13387;BME280;6763;48.524;9.044;2023-05-03T01:18:49;98536.81;;;12.56;54.35
13387;BME280;6763;48.524;9.044;2023-05-03T01:21:18;98537.72;;;12.54;54.20
13387;BME280;6763;48.524;9.044;2023-05-03T01:26:24;98530.00;;;12.49;54.76
13387;BME280;6763;48.524;9.044;2023-05-03T01:28:50;98523.09;;;12.45;54.55
13387;BME280;6763;48.524;9.044;2023-05-03T01:31:56;98526.56;;;12.47;54.19
13387;BME280;6763;48.524;9.044;2023-05-03T01:34:23;98529.16;;;12.45;54.50
13387;BME280;6763;48.524;9.044;2023-05-03T01:36:52;98523.13;;;12.43;54.83
13387;BME280;6763;48.524;9.044;2023-05-03T01:39:22;98521.41;;;12.44;54.55
13387;BME280;6763;48.524;9.044;2023-05-03T01:41:52;98524.00;;;12.42;54.37
13387;BME280;6763;48.524;9.044;2023-05-03T01:44:18;98524.91;;;12.40;54.78
13387;BME280;6763;48.524;9.044;2023-05-03T01:46:46;98518.06;;;12.36;54.52
13387;BME280;6763;48.524;9.044;2023-05-03T01:49:12;98522.38;;;12.35;54.54
13387;BME280;6763;48.524;9.044;2023-05-03T01:51:38;98530.22;;;12.34;54.43
13387;BME280;6763;48.524;9.044;2023-05-03T01:54:03;98530.22;;;12.32;54.69
13387;BME280;6763;48.524;9.044;2023-05-03T01:56:29;98531.13;;;12.31;54.46
13387;BME280;6763;48.524;9.044;2023-05-03T01:58:55;98534.59;;;12.27;54.49
13387;BME280;6763;48.524;9.044;2023-05-03T02:01:21;98526.84;;;12.26;54.84
13387;BME280;6763;48.524;9.044;2023-05-03T02:03:46;98527.75;;;12.23;54.99
13387;BME280;6763;48.524;9.044;2023-05-03T02:06:12;98530.34;;;12.23;55.10
13387;BME280;6763;48.524;9.044;2023-05-03T02:08:37;98525.19;;;12.20;55.10
13387;BME280;6763;48.524;9.044;2023-05-03T02:11:02;98527.78;;;12.20;55.34
13387;BME280;6763;48.524;9.044;2023-05-03T02:13:28;98517.47;;;12.16;55.27
13387;BME280;6763;48.524;9.044;2023-05-03T02:15:53;98524.44;;;12.12;54.85
13387;BME280;6763;48.524;9.044;2023-05-03T02:18:19;98522.78;;;12.07;54.63
13387;BME280;6763;48.524;9.044;2023-05-03T02:20:46;98527.16;;;12.02;54.94
13387;BME280;6763;48.524;9.044;2023-05-03T02:23:12;98520.31;;;11.96;54.97
13387;BME280;6763;48.524;9.044;2023-05-03T02:25:38;98522.09;;;11.93;54.78
13387;BME280;6763;48.524;9.044;2023-05-03T02:28:04;98526.50;;;11.88;54.93
13387;BME280;6763;48.524;9.044;2023-05-03T02:30:30;98523.94;;;11.85;55.18
13387;BME280;6763;48.524;9.044;2023-05-03T02:32:56;98526.56;;;11.81;54.86
13387;BME280;6763;48.524;9.044;2023-05-03T02:35:21;98521.44;;;11.77;55.29
13387;BME280;6763;48.524;9.044;2023-05-03T02:37:46;98518.84;;;11.75;54.51
13387;BME280;6763;48.524;9.044;2023-05-03T02:40:12;98525.81;;;11.70;54.68
13387;BME280;6763;48.524;9.044;2023-05-03T02:42:39;98530.13;;;11.70;55.27
13387;BME280;6763;48.524;9.044;2023-05-03T02:45:04;98517.19;;;11.67;54.93
13387;BME280;6763;48.524;9.044;2023-05-03T02:47:30;98518.09;;;11.64;55.02
13387;BME280;6763;48.524;9.044;2023-05-03T02:49:56;98525.00;;;11.64;55.29
13387;BME280;6763;48.524;9.044;2023-05-03T02:52:21;98513.81;;;11.59;55.47
13387;BME280;6763;48.524;9.044;2023-05-03T02:54:46;98513.03;;;11.54;55.01
13387;BME280;6763;48.524;9.044;2023-05-03T02:57:14;98513.91;;;11.51;54.74
13387;BME280;6763;48.524;9.044;2023-05-03T02:59:39;98525.16;;;11.47;55.21
13387;BME280;6763;48.524;9.044;2023-05-03T03:02:05;98519.19;;;11.44;55.37
13387;BME280;6763;48.524;9.044;2023-05-03T03:04:30;98528.72;;;11.40;55.37
13387;BME280;6763;48.524;9.044;2023-05-03T03:06:55;98528.72;;;11.37;55.04
13387;BME280;6763;48.524;9.044;2023-05-03T03:09:21;98527.03;;;11.35;55.27
13387;BME280;6763;48.524;9.044;2023-05-03T03:11:46;98523.59;;;11.31;55.03
13387;BME280;6763;48.524;9.044;2023-05-03T03:14:12;98526.22;;;11.30;55.30
13387;BME280;6763;48.524;9.044;2023-05-03T03:16:37;98518.47;;;11.27;55.43
13387;BME280;6763;48.524;9.044;2023-05-03T03:19:03;98519.38;;;11.23;55.52
13387;BME280;6763;48.524;9.044;2023-05-03T03:21:28;98516.81;;;11.19;55.70
13387;BME280;6763;48.524;9.044;2023-05-03T03:23:55;98518.56;;;11.17;55.86
13387;BME280;6763;48.524;9.044;2023-05-03T03:26:20;98517.75;;;11.11;55.63
13387;BME280;6763;48.524;9.044;2023-05-03T03:28:45;98522.97;;;11.06;55.57
13387;BME280;6763;48.524;9.044;2023-05-03T03:31:11;98523.03;;;11.02;55.70
13387;BME280;6763;48.524;9.044;2023-05-03T03:33:36;98517.03;;;10.95;55.55
13387;BME280;6763;48.524;9.044;2023-05-03T03:36:02;98517.91;;;10.93;55.49
13387;BME280;6763;48.524;9.044;2023-05-03T03:38:27;98523.97;;;10.93;55.84
13387;BME280;6763;48.524;9.044;2023-05-03T03:40:53;98523.09;;;10.90;55.64
13387;BME280;6763;48.524;9.044;2023-05-03T03:43:18;98533.47;;;10.91;55.64
13387;BME280;6763;48.524;9.044;2023-05-03T03:45:44;98517.09;;;10.88;55.83
13387;BME280;6763;48.524;9.044;2023-05-03T03:48:09;98525.72;;;10.91;55.62
13387;BME280;6763;48.524;9.044;2023-05-03T03:50:35;98524.84;;;10.91;56.01
13387;BME280;6763;48.524;9.044;2023-05-03T03:53:01;98523.97;;;10.92;55.88
13387;BME280;6763;48.524;9.044;2023-05-03T03:55:26;98523.91;;;10.98;56.16
13387;BME280;6763;48.524;9.044;2023-05-03T03:57:52;98529.03;;;11.04;56.09
13387;BME280;6763;48.524;9.044;2023-05-03T04:00:17;98531.56;;;11.11;56.11
13387;BME280;6763;48.524;9.044;2023-05-03T04:02:43;98532.38;;;11.16;56.09
13387;BME280;6763;48.524;9.044;2023-05-03T04:05:08;98534.94;;;11.19;55.70
13387;BME280;6763;48.524;9.044;2023-05-03T04:07:33;98528.06;;;11.17;55.59
13387;BME280;6763;48.524;9.044;2023-05-03T04:09:59;98533.22;;;11.18;55.47
13387;BME280;6763;48.524;9.044;2023-05-03T04:12:24;98541.00;;;11.18;55.50
13387;BME280;6763;48.524;9.044;2023-05-03T04:14:50;98536.69;;;11.19;55.56
13387;BME280;6763;48.524;9.044;2023-05-03T04:17:15;98547.88;;;11.21;55.96
13387;BME280;6763;48.524;9.044;2023-05-03T04:19:40;98544.41;;;11.23;55.54
13387;BME280;6763;48.524;9.044;2023-05-03T04:22:06;98546.13;;;11.28;55.52
13387;BME280;6763;48.524;9.044;2023-05-03T04:24:31;98552.97;;;11.32;55.78
13387;BME280;6763;48.524;9.044;2023-05-03T04:26:56;98552.91;;;11.38;55.41
13387;BME280;6763;48.524;9.044;2023-05-03T04:29:23;98558.06;;;11.44;55.70
13387;BME280;6763;48.524;9.044;2023-05-03T04:31:49;98563.16;;;11.50;55.83
13387;BME280;6763;48.524;9.044;2023-05-03T04:34:14;98568.28;;;11.56;55.47
13387;BME280;6763;48.524;9.044;2023-05-03T04:36:40;98567.34;;;11.64;55.40
13387;BME280;6763;48.524;9.044;2023-05-03T04:39:06;98561.22;;;11.73;55.59
13387;BME280;6763;48.524;9.044;2023-05-03T04:41:32;98565.50;;;11.80;55.10
13387;BME280;6763;48.524;9.044;2023-05-03T04:43:58;98566.22;;;11.88;55.41
13387;BME280;6763;48.524;9.044;2023-05-03T04:46:24;98574.88;;;11.89;55.33
13387;BME280;6763;48.524;9.044;2023-05-03T04:48:49;98571.47;;;11.85;55.67
13387;BME280;6763;48.524;9.044;2023-05-03T04:51:15;98577.50;;;11.87;55.84
13387;BME280;6763;48.524;9.044;2023-05-03T04:53:40;98586.06;;;11.95;55.23
13387;BME280;6763;48.524;9.044;2023-05-03T04:56:06;98580.72;;;12.07;55.54
13387;BME280;6763;48.524;9.044;2023-05-03T04:58:31;98577.16;;;12.16;54.97
13387;BME280;6763;48.524;9.044;2023-05-03T05:00:58;98581.34;;;12.29;55.37
13387;BME280;6763;48.524;9.044;2023-05-03T05:03:23;98581.13;;;12.44;55.09
13387;BME280;6763;48.524;9.044;2023-05-03T05:05:48;98574.88;;;12.57;54.61
13387;BME280;6763;48.524;9.044;2023-05-03T05:08:15;98575.56;;;12.70;54.68
13387;BME280;6763;48.524;9.044;2023-05-03T05:10:40;98574.50;;;12.81;54.05
13387;BME280;6763;48.524;9.044;2023-05-03T05:13:06;98574.34;;;12.93;54.23
13387;BME280;6763;48.524;9.044;2023-05-03T05:15:31;98576.94;;;12.93;54.55
13387;BME280;6763;48.524;9.044;2023-05-03T05:17:57;98581.25;;;12.96;54.48
13387;BME280;6763;48.524;9.044;2023-05-03T05:20:22;98589.69;;;13.10;54.43
13387;BME280;6763;48.524;9.044;2023-05-03T05:22:47;98587.78;;;13.23;53.77
13387;BME280;6763;48.524;9.044;2023-05-03T05:25:13;98587.56;;;13.33;53.88
13387;BME280;6763;48.524;9.044;2023-05-03T05:27:38;98580.47;;;13.44;53.79
13387;BME280;6763;48.524;9.044;2023-05-03T05:30:04;98590.66;;;13.56;53.04
13387;BME280;6763;48.524;9.044;2023-05-03T05:32:30;98593.91;;;13.69;53.33
13387;BME280;6763;48.524;9.044;2023-05-03T05:34:55;98588.53;;;13.78;53.40
13387;BME280;6763;48.524;9.044;2023-05-03T05:37:21;98583.97;;;13.89;52.59
13387;BME280;6763;48.524;9.044;2023-05-03T05:39:47;98578.56;;;14.00;52.92
13387;BME280;6763;48.524;9.044;2023-05-03T05:42:13;98586.22;;;14.07;52.97
13387;BME280;6763;48.524;9.044;2023-05-03T05:44:38;98588.63;;;14.16;52.81
13387;BME280;6763;48.524;9.044;2023-05-03T05:47:04;98585.91;;;14.22;52.51
13387;BME280;6763;48.524;9.044;2023-05-03T05:49:29;98591.88;;;14.29;52.34
13387;BME280;6763;48.524;9.044;2023-05-03T05:51:54;98593.47;;;14.36;52.34
13387;BME280;6763;48.524;9.044;2023-05-03T05:54:21;98595.81;;;14.48;52.03
13387;BME280;6763;48.524;9.044;2023-05-03T05:56:46;98591.38;;;14.53;51.55
13387;BME280;6763;48.524;9.044;2023-05-03T05:59:12;98589.50;;;14.60;51.47
13387;BME280;6763;48.524;9.044;2023-05-03T06:01:37;98585.00;;;14.66;51.43
13387;BME280;6763;48.524;9.044;2023-05-03T06:04:06;98579.56;;;14.77;51.12
13387;BME280;6763;48.524;9.044;2023-05-03T06:06:31;98577.63;;;14.85;50.84
13387;BME280;6763;48.524;9.044;2023-05-03T06:08:56;98584.38;;;14.94;51.01
13387;BME280;6763;48.524;9.044;2023-05-03T06:11:22;98582.41;;;15.03;50.77
13387;BME280;6763;48.524;9.044;2023-05-03T06:13:47;98575.19;;;15.14;50.57
13387;BME280;6763;48.524;9.044;2023-05-03T06:16:12;98575.78;;;15.25;50.41
13387;BME280;6763;48.524;9.044;2023-05-03T06:18:37;98574.63;;;15.37;50.22
13387;BME280;6763;48.524;9.044;2023-05-03T06:21:03;98575.31;;;15.43;49.60
13387;BME280;6763;48.524;9.044;2023-05-03T06:23:28;98572.66;;;15.46;49.17
13387;BME280;6763;48.524;9.044;2023-05-03T06:25:54;98571.72;;;15.49;48.99
13387;BME280;6763;48.524;9.044;2023-05-03T06:28:19;98569.84;;;15.56;49.26
13387;BME280;6763;48.524;9.044;2023-05-03T06:30:48;98569.59;;;15.65;49.30
13387;BME280;6763;48.524;9.044;2023-05-03T06:33:14;98571.03;;;15.76;49.13
13387;BME280;6763;48.524;9.044;2023-05-03T06:35:39;98570.69;;;15.88;48.72
13387;BME280;6763;48.524;9.044;2023-05-03T06:38:05;98572.94;;;16.02;48.97
13387;BME280;6763;48.524;9.044;2023-05-03T06:40:31;98572.50;;;16.17;49.03
13387;BME280;6763;48.524;9.044;2023-05-03T06:42:56;98567.75;;;16.30;48.28
13387;BME280;6763;48.524;9.044;2023-05-03T06:45:21;98572.66;;;16.42;48.11
13387;BME280;6763;48.524;9.044;2023-05-03T06:47:47;98581.84;;;16.55;48.35
13387;BME280;6763;48.524;9.044;2023-05-03T06:50:14;98579.84;;;16.64;48.17
13387;BME280;6763;48.524;9.044;2023-05-03T06:52:39;98579.59;;;16.72;47.93
13387;BME280;6763;48.524;9.044;2023-05-03T06:55:06;98578.47;;;16.81;47.81
13387;BME280;6763;48.524;9.044;2023-05-03T06:57:31;98579.03;;;16.90;47.67
13387;BME280;6763;48.524;9.044;2023-05-03T06:59:56;98573.41;;;17.02;47.41
13387;BME280;6763;48.524;9.044;2023-05-03T07:02:22;98573.94;;;17.13;46.97
13387;BME280;6763;48.524;9.044;2023-05-03T07:04:47;98565.03;;;17.19;46.95
13387;BME280;6763;48.524;9.044;2023-05-03T07:07:13;98563.22;;;17.21;46.55
13387;BME280;6763;48.524;9.044;2023-05-03T07:09:39;98566.44;;;17.29;46.58
13387;BME280;6763;48.524;9.044;2023-05-03T07:12:05;98574.81;;;17.40;46.08
13387;BME280;6763;48.524;9.044;2023-05-03T07:14:30;98563.91;;;17.52;46.29
13387;BME280;6763;48.524;9.044;2023-05-03T07:16:56;98558.88;;;17.72;46.24
13387;BME280;6763;48.524;9.044;2023-05-03T07:19:21;98558.13;;;17.93;45.46
13387;BME280;6763;48.524;9.044;2023-05-03T07:21:46;98556.59;;;18.11;45.52
13387;BME280;6763;48.524;9.044;2023-05-03T07:24:12;98554.09;;;18.31;45.01
13387;BME280;6763;48.524;9.044;2023-05-03T07:26:37;98543.91;;;18.47;44.20
13387;BME280;6763;48.524;9.044;2023-05-03T07:29:03;98553.78;;;18.64;44.25
13387;BME280;6763;48.524;9.044;2023-05-03T07:31:28;98553.16;;;18.79;43.81
13387;BME280;6763;48.524;9.044;2023-05-03T07:33:53;98551.97;;;18.87;43.77
13387;BME280;6763;48.524;9.044;2023-05-03T07:36:19;98546.88;;;19.04;43.40
13387;BME280;6763;48.524;9.044;2023-05-03T07:38:44;98548.72;;;19.24;43.19
13387;BME280;6763;48.524;9.044;2023-05-03T07:41:10;98547.91;;;19.44;42.84
13387;BME280;6763;48.524;9.044;2023-05-03T07:43:35;98546.41;;;19.58;42.15
13387;BME280;6763;48.524;9.044;2023-05-03T07:46:01;98542.53;;;19.67;41.93
13387;BME280;6763;48.524;9.044;2023-05-03T07:48:26;98547.31;;;19.77;41.84
13387;BME280;6763;48.524;9.044;2023-05-03T07:50:51;98544.31;;;19.87;41.45
13387;BME280;6763;48.524;9.044;2023-05-03T07:53:17;98541.34;;;19.94;41.40
13387;BME280;6763;48.524;9.044;2023-05-03T07:55:42;98534.81;;;20.03;41.11
13387;BME280;6763;48.524;9.044;2023-05-03T07:58:07;98532.00;;;20.07;41.17
13387;BME280;6763;48.524;9.044;2023-05-03T08:00:33;98527.75;;;20.23;40.96
13387;BME280;6763;48.524;9.044;2023-05-03T08:02:58;98527.91;;;20.39;40.01
13387;BME280;6763;48.524;9.044;2023-05-03T08:05:25;98523.88;;;20.32;39.65
13387;BME280;6763;48.524;9.044;2023-05-03T08:07:50;98529.88;;;20.15;39.69
13387;BME280;6763;48.524;9.044;2023-05-03T08:10:16;98519.13;;;20.01;40.10
13387;BME280;6763;48.524;9.044;2023-05-03T08:12:42;98525.63;;;19.93;40.47
13387;BME280;6763;48.524;9.044;2023-05-03T08:15:08;98532.19;;;20.03;40.23
13387;BME280;6763;48.524;9.044;2023-05-03T08:17:41;98525.88;;;20.07;39.93
13387;BME280;6763;48.524;9.044;2023-05-03T08:20:07;98520.41;;;20.11;40.21
13387;BME280;6763;48.524;9.044;2023-05-03T08:22:32;98515.78;;;20.16;40.37
13387;BME280;6763;48.524;9.044;2023-05-03T08:24:57;98532.28;;;20.20;39.78
13387;BME280;6763;48.524;9.044;2023-05-03T08:27:24;98521.63;;;20.04;39.93
13387;BME280;6763;48.524;9.044;2023-05-03T08:29:52;98523.00;;;19.93;40.54
13387;BME280;6763;48.524;9.044;2023-05-03T08:32:17;98525.56;;;19.94;40.61
13387;BME280;6763;48.524;9.044;2023-05-03T08:34:44;98521.81;;;20.00;40.65
13387;BME280;6763;48.524;9.044;2023-05-03T08:37:10;98521.41;;;20.09;40.76
13387;BME280;6763;48.524;9.044;2023-05-03T08:39:35;98517.50;;;20.17;40.67
13387;BME280;6763;48.524;9.044;2023-05-03T08:42:06;98518.09;;;20.24;40.23
13387;BME280;6763;48.524;9.044;2023-05-03T08:44:36;98516.19;;;20.27;40.14
13387;BME280;6763;48.524;9.044;2023-05-03T08:47:03;98513.44;;;20.30;40.29
13387;BME280;6763;48.524;9.044;2023-05-03T08:49:31;98510.81;;;20.30;39.59
13387;BME280;6763;48.524;9.044;2023-05-03T08:51:58;98518.38;;;20.18;39.82
13387;BME280;6763;48.524;9.044;2023-05-03T08:54:25;98516.16;;;20.09;39.71
13387;BME280;6763;48.524;9.044;2023-05-03T08:56:51;98508.75;;;19.98;39.53
13387;BME280;6763;48.524;9.044;2023-05-03T08:59:16;98513.34;;;19.93;39.92
13387;BME280;6763;48.524;9.044;2023-05-03T09:01:42;98518.38;;;19.98;40.25
13387;BME280;6763;48.524;9.044;2023-05-03T09:04:09;98515.22;;;20.10;40.37
13387;BME280;6763;48.524;9.044;2023-05-03T09:06:35;98513.56;;;20.27;40.24
13387;BME280;6763;48.524;9.044;2023-05-03T09:09:02;98509.72;;;20.53;40.05
13387;BME280;6763;48.524;9.044;2023-05-03T09:11:36;98503.78;;;20.85;39.68
13387;BME280;6763;48.524;9.044;2023-05-03T09:14:16;98512.31;;;21.26;39.05
13387;BME280;6763;48.524;9.044;2023-05-03T09:16:43;98512.22;;;21.62;38.24
13387;BME280;6763;48.524;9.044;2023-05-03T09:19:10;98514.63;;;21.84;37.51
13387;BME280;6763;48.524;9.044;2023-05-03T09:21:41;98511.09;;;22.17;37.15
13387;BME280;6763;48.524;9.044;2023-05-03T09:24:14;98519.22;;;22.61;36.61
13387;BME280;6763;48.524;9.044;2023-05-03T09:26:40;98509.84;;;23.03;36.01
13387;BME280;6763;48.524;9.044;2023-05-03T09:29:06;98506.13;;;23.36;35.10
13387;BME280;6763;48.524;9.044;2023-05-03T09:31:34;98495.34;;;23.69;35.12
13387;BME280;6763;48.524;9.044;2023-05-03T09:34:00;98494.56;;;24.11;34.43
13387;BME280;6763;48.524;9.044;2023-05-03T09:36:25;98486.84;;;24.49;33.99
13387;BME280;6763;48.524;9.044;2023-05-03T09:38:52;98486.34;;;24.85;33.63
13387;BME280;6763;48.524;9.044;2023-05-03T09:41:28;98483.91;;;25.21;33.18
13387;BME280;6763;48.524;9.044;2023-05-03T09:43:54;98483.28;;;25.57;32.49
13387;BME280;6763;48.524;9.044;2023-05-03T09:46:21;98478.59;;;25.60;30.57
13387;BME280;6763;48.524;9.044;2023-05-03T09:48:49;98481.63;;;25.42;31.15
13387;BME280;6763;48.524;9.044;2023-05-03T09:51:15;98478.81;;;25.18;31.33
13387;BME280;6763;48.524;9.044;2023-05-03T09:53:40;98473.91;;;24.85;31.74
13387;BME280;6763;48.524;9.044;2023-05-03T09:56:10;98476.53;;;24.58;32.17
13387;BME280;6763;48.524;9.044;2023-05-03T09:58:39;98479.75;;;24.63;32.74
13387;BME280;6763;48.524;9.044;2023-05-03T10:01:06;98473.44;;;24.93;31.68
13387;BME280;6763;48.524;9.044;2023-05-03T10:03:39;98477.31;;;25.14;31.30
13387;BME280;6763;48.524;9.044;2023-05-03T10:06:25;98471.00;;;25.29;30.31
13387;BME280;6763;48.524;9.044;2023-05-03T10:08:59;98466.44;;;25.31;30.08
13387;BME280;6763;48.524;9.044;2023-05-03T10:11:26;98470.06;;;25.43;29.97
13387;BME280;6763;48.524;9.044;2023-05-03T10:13:52;98461.00;;;25.59;29.74
13387;BME280;6763;48.524;9.044;2023-05-03T10:16:39;98458.25;;;25.86;29.48
13387;BME280;6763;48.524;9.044;2023-05-03T10:19:16;98461.09;;;26.21;29.29
13387;BME280;6763;48.524;9.044;2023-05-03T10:21:53;98460.50;;;26.54;28.32
13387;BME280;6763;48.524;9.044;2023-05-03T10:24:19;98456.38;;;26.73;28.54
13387;BME280;6763;48.524;9.044;2023-05-03T10:26:46;98452.00;;;26.85;27.57
13387;BME280;6763;48.524;9.044;2023-05-03T10:29:44;98446.25;;;26.91;27.13
13387;BME280;6763;48.524;9.044;2023-05-03T10:35:01;98445.06;;;27.30;27.06
13387;BME280;6763;48.524;9.044;2023-05-03T10:37:28;98432.59;;;27.54;27.12
13387;BME280;6763;48.524;9.044;2023-05-03T10:39:54;98442.06;;;27.80;26.71
13387;BME280;6763;48.524;9.044;2023-05-03T10:42:22;98438.91;;;27.97;26.36
13387;BME280;6763;48.524;9.044;2023-05-03T10:44:49;98441.81;;;27.83;26.25
13387;BME280;6763;48.524;9.044;2023-05-03T10:47:17;98446.91;;;27.75;26.07
13387;BME280;6763;48.524;9.044;2023-05-03T10:49:43;98435.41;;;27.75;25.63
13387;BME280;6763;48.524;9.044;2023-05-03T10:55:00;98429.09;;;27.64;24.90
13387;BME280;6763;48.524;9.044;2023-05-03T10:57:29;98427.94;;;27.34;24.62
13387;BME280;6763;48.524;9.044;2023-05-03T10:59:56;98436.88;;;27.09;24.88
13387;BME280;6763;48.524;9.044;2023-05-03T11:02:27;98436.84;;;26.74;24.96
13387;BME280;6763;48.524;9.044;2023-05-03T11:04:55;98433.88;;;26.42;25.34
13387;BME280;6763;48.524;9.044;2023-05-03T11:07:22;98428.84;;;26.14;25.62
13387;BME280;6763;48.524;9.044;2023-05-03T11:09:48;98432.03;;;26.19;26.03
13387;BME280;6763;48.524;9.044;2023-05-03T11:12:14;98422.91;;;26.47;25.89
13387;BME280;6763;48.524;9.044;2023-05-03T11:14:41;98412.50;;;26.80;25.54
13387;BME280;6763;48.524;9.044;2023-05-03T11:17:06;98416.28;;;26.89;25.49
13387;BME280;6763;48.524;9.044;2023-05-03T11:19:32;98416.72;;;26.83;25.28
13387;BME280;6763;48.524;9.044;2023-05-03T11:21:57;98416.38;;;26.87;25.08
13387;BME280;6763;48.524;9.044;2023-05-03T11:24:23;98411.09;;;26.75;25.11
13387;BME280;6763;48.524;9.044;2023-05-03T11:26:48;98397.53;;;26.67;25.15
13387;BME280;6763;48.524;9.044;2023-05-03T11:29:14;98393.03;;;26.32;25.47
13387;BME280;6763;48.524;9.044;2023-05-03T11:31:41;98399.00;;;26.11;25.97
13387;BME280;6763;48.524;9.044;2023-05-03T11:34:08;98399.72;;;26.25;25.53
13387;BME280;6763;48.524;9.044;2023-05-03T11:36:34;98396.88;;;26.52;25.68
13387;BME280;6763;48.524;9.044;2023-05-03T11:38:59;98389.47;;;26.68;24.97
13387;BME280;6763;48.524;9.044;2023-05-03T11:41:25;98390.69;;;26.28;25.31
13387;BME280;6763;48.524;9.044;2023-05-03T11:43:51;98390.00;;;26.13;26.12
13387;BME280;6763;48.524;9.044;2023-05-03T11:46:18;98383.13;;;26.34;25.80
13387;BME280;6763;48.524;9.044;2023-05-03T11:48:45;98391.13;;;26.58;25.33
13387;BME280;6763;48.524;9.044;2023-05-03T11:51:11;98380.16;;;26.86;25.34
13387;BME280;6763;48.524;9.044;2023-05-03T11:53:38;98376.56;;;26.98;24.83
13387;BME280;6763;48.524;9.044;2023-05-03T11:56:10;98380.44;;;26.94;24.50
13387;BME280;6763;48.524;9.044;2023-05-03T11:58:51;98367.56;;;26.77;24.74
13387;BME280;6763;48.524;9.044;2023-05-03T12:01:20;98374.75;;;26.75;25.22
13387;BME280;6763;48.524;9.044;2023-05-03T12:03:46;98381.03;;;26.98;25.05
13387;BME280;6763;48.524;9.044;2023-05-03T12:06:14;98364.75;;;27.02;24.92
13387;BME280;6763;48.524;9.044;2023-05-03T12:08:41;98368.63;;;27.09;25.40
13387;BME280;6763;48.524;9.044;2023-05-03T12:11:06;98357.38;;;27.41;25.24
13387;BME280;6763;48.524;9.044;2023-05-03T12:13:34;98361.00;;;27.84;24.62
13387;BME280;6763;48.524;9.044;2023-05-03T12:16:01;98350.22;;;27.97;23.96
13387;BME280;6763;48.524;9.044;2023-05-03T12:18:53;98359.81;;;27.88;23.91
13387;BME280;6763;48.524;9.044;2023-05-03T12:21:21;98357.88;;;27.79;24.41
13387;BME280;6763;48.524;9.044;2023-05-03T12:23:47;98355.31;;;28.00;23.99
13387;BME280;6763;48.524;9.044;2023-05-03T12:26:19;98351.91;;;28.20;23.33
13387;BME280;6763;48.524;9.044;2023-05-03T12:28:47;98348.34;;;28.42;23.41
13387;BME280;6763;48.524;9.044;2023-05-03T12:31:12;98359.00;;;28.53;23.46
13387;BME280;6763;48.524;9.044;2023-05-03T12:33:38;98359.63;;;28.77;22.92
13387;BME280;6763;48.524;9.044;2023-05-03T12:36:04;98363.56;;;29.25;22.72
13387;BME280;6763;48.524;9.044;2023-05-03T12:38:31;98349.88;;;29.90;22.17
13387;BME280;6763;48.524;9.044;2023-05-03T12:40:57;98346.50;;;30.57;20.77
13387;BME280;6763;48.524;9.044;2023-05-03T12:43:24;98347.94;;;30.80;20.65
13387;BME280;6763;48.524;9.044;2023-05-03T12:45:49;98351.28;;;30.44;20.04
13387;BME280;6763;48.524;9.044;2023-05-03T12:48:14;98331.91;;;29.72;20.48
13387;BME280;6763;48.524;9.044;2023-05-03T12:50:40;98348.53;;;29.13;20.93
13387;BME280;6763;48.524;9.044;2023-05-03T12:53:05;98340.47;;;28.83;21.48
13387;BME280;6763;48.524;9.044;2023-05-03T12:55:31;98333.97;;;28.76;21.83
13387;BME280;6763;48.524;9.044;2023-05-03T12:57:58;98329.72;;;29.26;21.48
13387;BME280;6763;48.524;9.044;2023-05-03T13:00:24;98330.59;;;29.87;21.07
13387;BME280;6763;48.524;9.044;2023-05-03T13:02:50;98332.59;;;30.44;20.33
13387;BME280;6763;48.524;9.044;2023-05-03T13:05:15;98324.72;;;30.81;19.80
13387;BME280;6763;48.524;9.044;2023-05-03T13:07:41;98311.91;;;31.03;19.74
13387;BME280;6763;48.524;9.044;2023-05-03T13:10:07;98318.28;;;31.39;19.67
13387;BME280;6763;48.524;9.044;2023-05-03T13:12:33;98314.63;;;31.50;18.75
13387;BME280;6763;48.524;9.044;2023-05-03T13:15:01;98314.28;;;30.87;19.15
13387;BME280;6763;48.524;9.044;2023-05-03T13:17:27;98323.16;;;30.78;19.49